Time;durP1;ratioP1;P1;durP2;ratioP2;P2;SDS_P1;SDS_P2;PMS_P1;PMS_P2;Temp;Humidity;BMP_temperature;BMP_pressure;BME280_temperature;BME280_humidity;BME280_pressure;Samples;Min_cycle;Max_cycle;Signal;HPM_P1;HPM_P2
2022/06/23 00:01:24;;;;;;;0.20;0.20;;;;;;;;;;5017627;28;20029;-81
2022/06/23 00:04:01;;;;;;;0.10;0.10;;;;;;;;;;5014658;28;20100;-78
2022/06/23 00:06:35;;;;;;;0.28;0.28;;;;;;;;;;5023225;28;20022;-78
2022/06/23 00:09:01;;;;;;;5.55;1.15;;;;;;;;;;5018122;28;20104;-79
2022/06/23 00:11:27;;;;;;;0.43;0.43;;;;;;;;;;5017578;28;20087;-76
2022/06/23 00:14:09;;;;;;;0.73;0.55;;;;;;;;;;5014081;28;21708;-76
2022/06/23 00:16:34;;;;;;;0.20;0.20;;;;;;;;;;5013318;28;20026;-76
2022/06/23 00:19:02;;;;;;;0.10;0.10;;;;;;;;;;5029922;28;20103;-76
2022/06/23 00:21:31;;;;;;;0.57;0.50;;;;;;;;;;5014777;28;20029;-74
2022/06/23 00:24:06;;;;;;;0.20;0.20;;;;;;;;;;5015901;28;20033;-75
2022/06/23 00:26:33;;;;;;;0.65;0.32;;;;;;;;;;5015719;28;20033;-76
2022/06/23 00:29:02;;;;;;;0.40;0.30;;;;;;;;;;5014043;28;20033;-76
2022/06/23 00:31:31;;;;;;;0.32;0.32;;;;;;;;;;5017782;28;20453;-76
2022/06/23 00:33:58;;;;;;;0.55;0.50;;;;;;;;;;5020490;28;20116;-77
2022/06/23 00:36:37;;;;;;;0.60;0.60;;;;;;;;;;5017572;28;20030;-77
2022/06/23 00:39:34;;;;;;;1.55;0.55;;;;;;;;;;5021155;28;20026;-76
2022/06/23 00:42:09;;;;;;;0.60;0.55;;;;;;;;;;5007074;28;20030;-76
2022/06/23 00:44:38;;;;;;;5.68;0.70;;;;;;;;;;5016374;28;20022;-76
2022/06/23 00:47:25;;;;;;;0.70;0.63;;;;;;;;;;5016189;28;20026;-75
2022/06/23 00:49:56;;;;;;;0.15;0.15;;;;;;;;;;4998459;28;20034;-77
2022/06/23 00:52:38;;;;;;;0.22;0.22;;;;;;;;;;5015062;28;20033;-76
2022/06/23 00:55:14;;;;;;;3.20;0.57;;;;;;;;;;5020892;28;20022;-77
2022/06/23 00:57:50;;;;;;;4.80;0.50;;;;;;;;;;5017137;28;20112;-77
2022/06/23 01:00:24;;;;;;;0.30;0.30;;;;;;;;;;5024659;28;20172;-77
2022/06/23 01:03:07;;;;;;;0.45;0.45;;;;;;;;;;5036614;28;20029;-76
2022/06/23 01:05:51;;;;;;;0.40;0.40;;;;;;;;;;5035614;28;20026;-77
2022/06/23 01:08:36;;;;;;;0.20;0.20;;;;;;;;;;5002043;28;20483;-76
2022/06/23 01:11:12;;;;;;;0.22;0.22;;;;;;;;;;5007752;28;20511;-74
2022/06/23 01:13:49;;;;;;;1.95;0.90;;;;;;;;;;5025010;28;20029;-75
2022/06/23 01:16:22;;;;;;;0.20;0.20;;;;;;;;;;4999591;28;20061;-75
2022/06/23 01:18:47;;;;;;;;;;;;;;;;;;5015731;28;20335;-76
2022/06/23 01:21:12;;;;;;;0.40;0.23;;;;;;;;;;5022694;28;19913;-74
2022/06/23 01:23:53;;;;;;;1.45;1.15;;;;;;;;;;5027707;28;20287;-74
2022/06/23 01:26:36;;;;;;;1.65;0.65;;;;;;;;;;5015721;28;20057;-75
2022/06/23 01:29:14;;;;;;;0.13;0.13;;;;;;;;;;5012331;28;20030;-74
2022/06/23 01:31:46;;;;;;;0.20;0.20;;;;;;;;;;5017403;28;20447;-75
2022/06/23 01:34:21;;;;;;;0.25;0.25;;;;;;;;;;5014447;28;20030;-75
2022/06/23 01:36:50;;;;;;;0.13;0.13;;;;;;;;;;5016020;28;20037;-75
2022/06/23 01:39:28;;;;;;;0.38;0.38;;;;;;;;;;5015949;28;20447;-75
2022/06/23 01:42:00;;;;;;;0.28;0.28;;;;;;;;;;5013496;28;20039;-75
2022/06/23 01:44:45;;;;;;;0.65;0.50;;;;;;;;;;5006805;28;20022;-75
2022/06/23 01:47:28;;;;;;;0.60;0.40;;;;;;;;;;5030079;28;20481;-75
2022/06/23 01:50:03;;;;;;;0.63;0.52;;;;;;;;;;5017643;28;20034;-75
2022/06/23 01:52:28;;;;;;;0.15;0.15;;;;;;;;;;5023535;28;20451;-75
2022/06/23 01:55:04;;;;;;;1.35;0.68;;;;;;;;;;5009368;28;20041;-75
2022/06/23 01:57:36;;;;;;;0.20;0.20;;;;;;;;;;5007453;28;20105;-75
2022/06/23 02:00:19;;;;;;;0.90;0.63;;;;;;;;;;5013947;28;20033;-75
2022/06/23 02:02:51;;;;;;;0.15;0.15;;;;;;;;;;5011565;28;20439;-75
2022/06/23 02:05:30;;;;;;;0.20;0.20;;;;;;;;;;5014186;28;20100;-75
2022/06/23 02:08:31;;;;;;;0.50;0.50;;;;;;;;;;5021043;28;20075;-75
2022/06/23 02:10:56;;;;;;;0.35;0.30;;;;;;;;;;5013002;28;20034;-75
2022/06/23 02:13:26;;;;;;;0.52;0.40;;;;;;;;;;5013661;28;20481;-75
2022/06/23 02:15:55;;;;;;;0.60;0.60;;;;;;;;;;5012803;28;20115;-75
2022/06/23 02:18:29;;;;;;;0.50;0.50;;;;;;;;;;5012791;28;20041;-74
2022/06/23 02:20:57;;;;;;;0.50;0.50;;;;;;;;;;5017171;28;20030;-75
2022/06/23 02:23:33;;;;;;;0.52;0.52;;;;;;;;;;5015439;28;20081;-75
2022/06/23 02:26:10;;;;;;;1.02;0.52;;;;;;;;;;5013950;28;20026;-75
2022/06/23 02:28:42;;;;;;;0.52;0.45;;;;;;;;;;5015871;28;20049;-75
2022/06/23 02:31:18;;;;;;;0.30;0.30;;;;;;;;;;5012431;28;20037;-75
2022/06/23 02:34:18;;;;;;;0.77;0.70;;;;;;;;;;5014935;28;20367;-75
2022/06/23 02:37:31;;;;;;;0.47;0.40;;;;;;;;;;4991825;28;20038;-75
2022/06/23 02:39:59;;;;;;;1.00;0.40;;;;;;;;;;5011115;28;20430;-75
2022/06/23 02:42:34;;;;;;;0.52;0.52;;;;;;;;;;5021666;28;20447;-75
2022/06/23 02:45:00;;;;;;;0.30;0.30;;;;;;;;;;4990767;28;20128;-75
2022/06/23 02:47:32;;;;;;;1.00;0.30;;;;;;;;;;5032451;28;20559;-75
2022/06/23 02:50:13;;;;;;;0.68;0.68;;;;;;;;;;5029383;28;20033;-75
2022/06/23 02:52:56;;;;;;;0.30;0.30;;;;;;;;;;5010429;28;20048;-74
2022/06/23 02:55:59;;;;;;;0.60;0.60;;;;;;;;;;4999041;28;20084;-74
2022/06/23 02:58:34;;;;;;;0.17;0.17;;;;;;;;;;5013401;28;20041;-75
2022/06/23 03:01:13;;;;;;;1.08;0.40;;;;;;;;;;5012072;28;21900;-74
2022/06/23 03:03:43;;;;;;;0.30;0.25;;;;;;;;;;5022704;28;20025;-75
2022/06/23 03:06:23;;;;;;;0.82;0.82;;;;;;;;;;5013013;28;20030;-74
2022/06/23 03:08:53;;;;;;;0.43;0.43;;;;;;;;;;5031748;28;20022;-74
2022/06/23 03:11:54;;;;;;;1.17;0.60;;;;;;;;;;5013102;28;20403;-75
2022/06/23 03:14:42;;;;;;;0.20;0.20;;;;;;;;;;5013203;28;20105;-75
2022/06/23 03:17:26;;;;;;;0.70;0.40;;;;;;;;;;5012336;28;20040;-75
2022/06/23 03:20:01;;;;;;;0.28;0.28;;;;;;;;;;5012234;28;20049;-75
2022/06/23 03:22:33;;;;;;;0.20;0.20;;;;;;;;;;5019912;28;20475;-75
2022/06/23 03:25:08;;;;;;;0.57;0.50;;;;;;;;;;5016415;28;20034;-75
2022/06/23 03:27:35;;;;;;;0.47;0.20;;;;;;;;;;5011535;28;20041;-75
2022/06/23 03:30:19;;;;;;;0.77;0.30;;;;;;;;;;5026392;28;20037;-75
2022/06/23 03:32:48;;;;;;;1.15;0.90;;;;;;;;;;5012933;28;20032;-75
2022/06/23 03:35:23;;;;;;;0.63;0.47;;;;;;;;;;5002115;28;20030;-75
2022/06/23 03:37:57;;;;;;;0.40;0.40;;;;;;;;;;5011446;28;20356;-75
2022/06/23 03:43:33;;;;;;;0.20;0.20;;;;;;;;;;5003503;28;20037;-74
2022/06/23 03:46:04;;;;;;;0.20;0.17;;;;;;;;;;5015399;28;20025;-75
2022/06/23 03:48:39;;;;;;;0.30;0.30;;;;;;;;;;5027128;28;20416;-75
2022/06/23 03:51:10;;;;;;;0.50;0.50;;;;;;;;;;5004721;28;20034;-75
2022/06/23 03:53:48;;;;;;;1.02;0.85;;;;;;;;;;5026169;28;20021;-75
2022/06/23 03:56:26;;;;;;;0.20;0.20;;;;;;;;;;5016131;28;20026;-75
2022/06/23 03:59:03;;;;;;;0.82;0.57;;;;;;;;;;5006936;28;20044;-75
2022/06/23 04:01:54;;;;;;;1.40;0.43;;;;;;;;;;5022076;28;20018;-74
2022/06/23 04:04:23;;;;;;;1.98;0.60;;;;;;;;;;5013695;28;20038;-75
2022/06/23 04:06:49;;;;;;;0.73;0.73;;;;;;;;;;5019734;28;20017;-75
2022/06/23 04:09:20;;;;;;;0.22;0.22;;;;;;;;;;5016743;28;20026;-75
2022/06/23 04:12:11;;;;;;;0.20;0.20;;;;;;;;;;5015829;28;20032;-74
2022/06/23 04:15:09;;;;;;;5.78;0.68;;;;;;;;;;5021656;28;20100;-75
2022/06/23 04:17:40;;;;;;;0.77;0.52;;;;;;;;;;5018762;28;20042;-75
2022/06/23 04:20:27;;;;;;;0.43;0.43;;;;;;;;;;5014894;28;20057;-75
2022/06/23 04:23:01;;;;;;;0.35;0.35;;;;;;;;;;5013799;28;20037;-75
2022/06/23 04:26:00;;;;;;;0.80;0.70;;;;;;;;;;5014569;28;20021;-74
2022/06/23 04:28:33;;;;;;;3.25;1.70;;;;;;;;;;5014376;28;20041;-75
2022/06/23 04:31:04;;;;;;;1.25;0.80;;;;;;;;;;5011222;28;20021;-75
2022/06/23 04:33:29;;;;;;;0.68;0.60;;;;;;;;;;5016749;28;20040;-75
2022/06/23 04:35:58;;;;;;;0.52;0.52;;;;;;;;;;5014416;28;20022;-75
2022/06/23 04:38:56;;;;;;;0.38;0.38;;;;;;;;;;5016759;28;20119;-74
2022/06/23 04:41:27;;;;;;;0.38;0.38;;;;;;;;;;5012823;28;20029;-75
2022/06/23 04:43:58;;;;;;;0.43;0.43;;;;;;;;;;5014498;28;20040;-76
2022/06/23 04:46:47;;;;;;;0.55;0.55;;;;;;;;;;5016072;28;20113;-75
2022/06/23 04:49:23;;;;;;;0.50;0.35;;;;;;;;;;5017775;28;20590;-75
2022/06/23 04:52:02;;;;;;;1.67;0.30;;;;;;;;;;5029320;28;20065;-75
2022/06/23 04:54:36;;;;;;;1.00;0.88;;;;;;;;;;5001701;28;20032;-75
2022/06/23 04:57:16;;;;;;;0.30;0.30;;;;;;;;;;5013368;28;20034;-75
2022/06/23 05:00:02;;;;;;;3.03;1.20;;;;;;;;;;5014753;28;20112;-75
2022/06/23 05:02:30;;;;;;;12.60;1.25;;;;;;;;;;5014469;28;20041;-75
2022/06/23 05:05:10;;;;;;;0.95;0.95;;;;;;;;;;5025325;28;20029;-76
2022/06/23 05:08:02;;;;;;;0.85;0.85;;;;;;;;;;4995475;28;20026;-75
2022/06/23 05:10:33;;;;;;;0.77;0.63;;;;;;;;;;5002332;28;20026;-75
2022/06/23 05:13:05;;;;;;;0.20;0.20;;;;;;;;;;5012587;28;20312;-75
2022/06/23 05:15:33;;;;;;;0.73;0.40;;;;;;;;;;5029244;28;20382;-75
2022/06/23 05:18:33;;;;;;;0.63;0.63;;;;;;;;;;5025497;28;20022;-75
2022/06/23 05:21:06;;;;;;;1.05;0.85;;;;;;;;;;5017483;28;20332;-73
2022/06/23 05:23:50;;;;;;;0.95;0.68;;;;;;;;;;5013642;28;20414;-74
2022/06/23 05:26:23;;;;;;;1.65;0.60;;;;;;;;;;5012865;28;20025;-75
2022/06/23 05:28:52;;;;;;;1.50;1.40;;;;;;;;;;5014337;28;20440;-75
2022/06/23 05:31:22;;;;;;;0.38;0.38;;;;;;;;;;5020477;28;20041;-75
2022/06/23 05:33:52;;;;;;;1.13;1.00;;;;;;;;;;5015424;28;20021;-74
2022/06/23 05:36:28;;;;;;;0.70;0.70;;;;;;;;;;5009865;28;20371;-75
2022/06/23 05:39:13;;;;;;;2.15;1.23;;;;;;;;;;4997048;28;20033;-76
2022/06/23 05:41:45;;;;;;;1.67;1.10;;;;;;;;;;5011227;28;20041;-75
2022/06/23 05:44:18;;;;;;;0.45;0.15;;;;;;;;;;5025030;28;20029;-75
2022/06/23 05:46:45;;;;;;;7.75;1.30;;;;;;;;;;5017536;28;20029;-75
2022/06/23 05:49:14;;;;;;;1.85;1.00;;;;;;;;;;5014483;28;20478;-75
2022/06/23 05:51:44;;;;;;;2.83;0.95;;;;;;;;;;5014270;28;20029;-75
2022/06/23 05:54:12;;;;;;;0.95;0.65;;;;;;;;;;5012832;28;20030;-75
2022/06/23 05:57:17;;;;;;;2.17;1.17;;;;;;;;;;5019676;28;20030;-74
2022/06/23 05:59:47;;;;;;;0.82;0.55;;;;;;;;;;5019969;28;20055;-75
2022/06/23 06:02:19;;;;;;;2.33;0.98;;;;;;;;;;5016881;28;20033;-75
2022/06/23 06:04:51;;;;;;;0.30;0.30;;;;;;;;;;5017298;28;20036;-75
2022/06/23 06:07:18;;;;;;;;;;;;;;;;;;5023432;28;20150;-76
2022/06/23 06:09:43;;;;;;;0.60;0.60;;;;;;;;;;5023993;28;19917;-75
2022/06/23 06:12:16;;;;;;;0.40;0.40;;;;;;;;;;5023431;28;20033;-75
2022/06/23 06:14:50;;;;;;;1.13;0.85;;;;;;;;;;5024969;28;20040;-75
2022/06/23 06:17:19;;;;;;;2.05;1.20;;;;;;;;;;5017820;28;20026;-76
2022/06/23 06:19:49;;;;;;;0.38;0.38;;;;;;;;;;5016457;28;20079;-76
2022/06/23 06:22:20;;;;;;;2.75;1.08;;;;;;;;;;5015248;28;20466;-76
2022/06/23 06:24:48;;;;;;;1.80;1.35;;;;;;;;;;5009022;28;20515;-75
2022/06/23 06:27:19;;;;;;;0.47;0.47;;;;;;;;;;4997181;28;20417;-75
2022/06/23 06:29:45;;;;;;;0.50;0.40;;;;;;;;;;5022568;28;20025;-75
2022/06/23 06:32:19;;;;;;;1.88;1.15;;;;;;;;;;5019565;28;20199;-75
2022/06/23 06:34:48;;;;;;;0.70;0.70;;;;;;;;;;5014220;28;20054;-75
2022/06/23 06:37:15;;;;;;;0.40;0.40;;;;;;;;;;5000596;28;20034;-75
2022/06/23 06:39:45;;;;;;;3.60;1.23;;;;;;;;;;5013262;28;20030;-75
2022/06/23 06:42:38;;;;;;;2.13;0.95;;;;;;;;;;5013217;28;20030;-76
2022/06/23 06:45:08;;;;;;;0.22;0.20;;;;;;;;;;5009623;28;20093;-75
2022/06/23 06:47:35;;;;;;;0.85;0.60;;;;;;;;;;5010762;28;20092;-76
2022/06/23 06:50:05;;;;;;;1.73;0.80;;;;;;;;;;5014453;28;20091;-76
2022/06/23 06:52:31;;;;;;;0.63;0.47;;;;;;;;;;5029045;28;20057;-76
2022/06/23 06:55:03;;;;;;;0.30;0.30;;;;;;;;;;5024209;28;20034;-76
2022/06/23 06:57:35;;;;;;;0.20;0.20;;;;;;;;;;5011775;28;20089;-75
2022/06/23 07:00:07;;;;;;;0.40;0.40;;;;;;;;;;5011880;28;20076;-75
2022/06/23 07:02:46;;;;;;;0.32;0.30;;;;;;;;;;5018804;28;20083;-75
2022/06/23 07:05:30;;;;;;;0.77;0.68;;;;;;;;;;5010536;28;20062;-76
2022/06/23 07:08:20;;;;;;;0.22;0.22;;;;;;;;;;5004292;28;20375;-74
2022/06/23 07:11:12;;;;;;;5.28;0.50;;;;;;;;;;5026515;28;20037;-75
2022/06/23 07:14:07;;;;;;;1.13;0.70;;;;;;;;;;5022700;28;20041;-74
2022/06/23 07:16:57;;;;;;;0.80;0.57;;;;;;;;;;5019318;28;20105;-75
2022/06/23 07:19:30;;;;;;;0.47;0.45;;;;;;;;;;5021194;28;20030;-75
2022/06/23 07:22:02;;;;;;;0.55;0.55;;;;;;;;;;5018778;28;20033;-75
2022/06/23 07:24:39;;;;;;;4.13;1.05;;;;;;;;;;5015067;28;20061;-75
2022/06/23 07:27:29;;;;;;;0.98;0.77;;;;;;;;;;5022570;28;20160;-75
2022/06/23 07:30:03;;;;;;;0.63;0.60;;;;;;;;;;5019707;28;20109;-75
2022/06/23 07:32:39;;;;;;;0.50;0.50;;;;;;;;;;5029305;28;20026;-75
2022/06/23 07:35:41;;;;;;;0.32;0.32;;;;;;;;;;5017438;28;20030;-76
2022/06/23 07:38:39;;;;;;;0.93;0.60;;;;;;;;;;5014189;28;20041;-76
2022/06/23 07:41:13;;;;;;;1.65;0.70;;;;;;;;;;5016111;28;20041;-76
2022/06/23 07:43:59;;;;;;;0.60;0.60;;;;;;;;;;5015725;28;20511;-75
2022/06/23 07:46:24;;;;;;;4.45;0.80;;;;;;;;;;5015626;28;20021;-76
2022/06/23 07:48:49;;;;;;;0.70;0.68;;;;;;;;;;4999583;28;20089;-76
2022/06/23 07:51:15;;;;;;;3.85;0.75;;;;;;;;;;5016269;28;20109;-77
2022/06/23 07:53:44;;;;;;;0.47;0.47;;;;;;;;;;5020777;28;20320;-76
2022/06/23 07:56:13;;;;;;;1.80;0.90;;;;;;;;;;5017238;28;20021;-76
2022/06/23 07:58:42;;;;;;;0.85;0.80;;;;;;;;;;5014484;28;20040;-76
2022/06/23 08:01:29;;;;;;;0.85;0.85;;;;;;;;;;5015987;28;20093;-76
2022/06/23 08:04:00;;;;;;;1.38;0.73;;;;;;;;;;5014663;28;20080;-77
2022/06/23 08:06:25;;;;;;;;;;;;;;;;;;5016086;28;20021;-77
2022/06/23 08:08:56;;;;;;;0.67;0.67;;;;;;;;;;5011380;28;19928;-76
2022/06/23 08:14:16;;;;;;;1.10;1.00;;;;;;;;;;5005177;28;20759;-77
2022/06/23 08:16:52;;;;;;;0.93;0.85;;;;;;;;;;5027225;28;20116;-77
2022/06/23 08:19:28;;;;;;;1.05;0.82;;;;;;;;;;5013398;28;20030;-76
2022/06/23 08:22:01;;;;;;;4.35;2.00;;;;;;;;;;5021477;28;20037;-76
2022/06/23 08:24:26;;;;;;;0.90;0.80;;;;;;;;;;5035454;28;20025;-77
2022/06/23 08:27:00;;;;;;;1.25;0.98;;;;;;;;;;5036462;28;20067;-80
2022/06/23 08:29:37;;;;;;;0.77;0.70;;;;;;;;;;5014075;28;20633;-78
2022/06/23 08:32:03;;;;;;;2.60;0.70;;;;;;;;;;5016036;28;20029;-78
2022/06/23 08:34:35;;;;;;;0.70;0.70;;;;;;;;;;5015053;28;20030;-78
2022/06/23 08:37:05;;;;;;;2.08;1.13;;;;;;;;;;5015782;28;20022;-78
2022/06/23 08:39:37;;;;;;;0.75;0.75;;;;;;;;;;5015571;28;20125;-79
2022/06/23 08:42:54;;;;;;;1.25;1.15;;;;;;;;;;5015541;28;20026;-78
2022/06/23 08:45:25;;;;;;;0.88;0.80;;;;;;;;;;4974389;28;20039;-80
2022/06/23 08:47:50;;;;;;;;;;;;;;;;;;4975269;28;20453;-78
2022/06/23 08:50:30;;;;;;;0.53;0.47;;;;;;;;;;4974945;28;19910;-81
2022/06/23 08:53:01;;;;;;;1.17;0.57;;;;;;;;;;4958842;28;20437;-80
2022/06/23 08:55:34;;;;;;;1.23;1.00;;;;;;;;;;4958791;28;20368;-81
2022/06/23 08:58:24;;;;;;;0.88;0.88;;;;;;;;;;4955221;28;20070;-81
2022/06/23 09:00:57;;;;;;;0.70;0.63;;;;;;;;;;4974902;28;20516;-81
2022/06/23 09:03:50;;;;;;;1.17;0.85;;;;;;;;;;4958878;28;20179;-82
2022/06/23 09:06:30;;;;;;;1.00;0.73;;;;;;;;;;4958244;28;20033;-79
2022/06/23 09:09:14;;;;;;;0.82;0.82;;;;;;;;;;4979398;28;20089;-79
2022/06/23 09:11:56;;;;;;;0.98;0.98;;;;;;;;;;4970919;28;20050;-80
2022/06/23 09:14:30;;;;;;;0.55;0.55;;;;;;;;;;4973765;28;20501;-79
2022/06/23 09:17:19;;;;;;;1.23;1.15;;;;;;;;;;5009729;28;20125;-81
2022/06/23 09:19:50;;;;;;;0.55;0.55;;;;;;;;;;5015055;28;20033;-78
2022/06/23 09:22:45;;;;;;;1.00;0.90;;;;;;;;;;5015670;28;20026;-79
2022/06/23 09:25:19;;;;;;;0.50;0.50;;;;;;;;;;5013875;28;20467;-79
2022/06/23 09:27:59;;;;;;;0.77;0.77;;;;;;;;;;5013906;28;20033;-79
2022/06/23 09:30:38;;;;;;;0.88;0.70;;;;;;;;;;4998174;28;20438;-79
2022/06/23 09:33:06;;;;;;;0.70;0.70;;;;;;;;;;5031578;28;20113;-79
2022/06/23 09:36:08;;;;;;;0.70;0.70;;;;;;;;;;5018210;28;20025;-79
2022/06/23 09:38:33;;;;;;;0.47;0.47;;;;;;;;;;5024792;28;20107;-80
2022/06/23 09:41:10;;;;;;;2.05;0.65;;;;;;;;;;5025137;28;20431;-79
2022/06/23 09:44:00;;;;;;;0.55;0.55;;;;;;;;;;5024066;28;20423;-79
2022/06/23 09:47:17;;;;;;;0.57;0.50;;;;;;;;;;5040800;28;20394;-79
2022/06/23 09:49:51;;;;;;;0.80;0.77;;;;;;;;;;5001816;28;20038;-80
2022/06/23 09:52:22;;;;;;;5.38;1.67;;;;;;;;;;5000340;28;21952;-80
2022/06/23 09:54:48;;;;;;;;;;;;;;;;;;5034550;28;20120;-80
2022/06/23 09:57:50;;;;;;;0.60;0.60;;;;;;;;;;5010773;28;20013;-79
2022/06/23 10:00:20;;;;;;;1.08;0.98;;;;;;;;;;5006982;28;20099;-79
2022/06/23 10:03:08;;;;;;;0.52;0.52;;;;;;;;;;5000619;28;20775;-78
2022/06/23 10:06:03;;;;;;;0.82;0.82;;;;;;;;;;5027538;28;20398;-79
2022/06/23 10:08:55;;;;;;;0.90;0.77;;;;;;;;;;5013901;28;20017;-79
2022/06/23 10:11:35;;;;;;;0.75;0.75;;;;;;;;;;5023021;28;20335;-79
2022/06/23 10:14:21;;;;;;;1.25;0.70;;;;;;;;;;5020421;28;20153;-78
2022/06/23 10:17:02;;;;;;;0.95;0.68;;;;;;;;;;5024634;28;20026;-79
2022/06/23 10:19:48;;;;;;;1.48;1.13;;;;;;;;;;5024296;28;20390;-78
2022/06/23 10:23:01;;;;;;;0.70;0.60;;;;;;;;;;5020514;28;20026;-78
2022/06/23 10:25:46;;;;;;;0.68;0.68;;;;;;;;;;4980224;28;20441;-78
2022/06/23 10:28:23;;;;;;;2.50;1.25;;;;;;;;;;4978527;28;20554;-79
2022/06/23 10:31:26;;;;;;;0.75;0.50;;;;;;;;;;5015890;28;20112;-79
2022/06/23 10:34:08;;;;;;;0.57;0.57;;;;;;;;;;5022998;28;20022;-79
2022/06/23 10:36:48;;;;;;;2.22;0.75;;;;;;;;;;5018443;28;20038;-79
2022/06/23 10:39:39;;;;;;;0.90;0.90;;;;;;;;;;5030831;28;20439;-77
2022/06/23 10:42:22;;;;;;;1.80;0.80;;;;;;;;;;5034352;28;20025;-77
2022/06/23 10:44:56;;;;;;;1.15;0.82;;;;;;;;;;5020456;28;20036;-77
2022/06/23 10:47:40;;;;;;;0.63;0.63;;;;;;;;;;5025140;28;20061;-77
2022/06/23 10:50:59;;;;;;;0.70;0.70;;;;;;;;;;5030874;28;20110;-77
2022/06/23 10:53:39;;;;;;;0.80;0.80;;;;;;;;;;4973090;28;20043;-77
2022/06/23 10:56:36;;;;;;;0.75;0.75;;;;;;;;;;5014346;28;20049;-77
2022/06/23 10:59:30;;;;;;;6.20;0.95;;;;;;;;;;5014158;28;20030;-77
2022/06/23 11:02:08;;;;;;;1.00;0.60;;;;;;;;;;5018610;28;20116;-76
2022/06/23 11:04:54;;;;;;;2.83;0.90;;;;;;;;;;5013400;28;20036;-76
2022/06/23 11:07:53;;;;;;;2.55;0.88;;;;;;;;;;5007314;28;20025;-77
2022/06/23 11:10:46;;;;;;;0.88;0.77;;;;;;;;;;5013681;28;20025;-78
2022/06/23 11:13:29;;;;;;;1.75;1.10;;;;;;;;;;5017279;28;20101;-78
2022/06/23 11:15:58;;;;;;;0.70;0.70;;;;;;;;;;5017198;28;20367;-78
2022/06/23 11:18:35;;;;;;;0.90;0.90;;;;;;;;;;5019774;28;20037;-78
2022/06/23 11:21:07;;;;;;;0.70;0.70;;;;;;;;;;5034467;28;20290;-78
2022/06/23 11:23:47;;;;;;;0.90;0.85;;;;;;;;;;5017415;28;20109;-77
2022/06/23 11:26:15;;;;;;;1.65;1.05;;;;;;;;;;5016921;28;20021;-78
2022/06/23 11:28:52;;;;;;;0.50;0.50;;;;;;;;;;5017680;28;20029;-77
2022/06/23 11:31:18;;;;;;;0.70;0.70;;;;;;;;;;5017737;28;20517;-78
2022/06/23 11:33:49;;;;;;;0.50;0.50;;;;;;;;;;5017073;28;20041;-81
2022/06/23 11:36:14;;;;;;;1.20;1.10;;;;;;;;;;5016698;28;20041;-78
2022/06/23 11:39:04;;;;;;;1.15;0.70;;;;;;;;;;5017322;28;20455;-77
2022/06/23 11:41:44;;;;;;;1.13;1.02;;;;;;;;;;5029340;28;20087;-76
2022/06/23 11:44:28;;;;;;;1.70;1.20;;;;;;;;;;5014367;28;20022;-78
2022/06/23 11:47:00;;;;;;;0.85;0.73;;;;;;;;;;5013567;28;20447;-78
2022/06/23 11:49:35;;;;;;;0.75;0.75;;;;;;;;;;5016527;28;20053;-78
2022/06/23 11:52:29;;;;;;;1.88;1.30;;;;;;;;;;5017089;28;20025;-77
2022/06/23 11:55:38;;;;;;;0.60;0.60;;;;;;;;;;5016940;28;20041;-77
2022/06/23 11:58:35;;;;;;;0.60;0.60;;;;;;;;;;4995577;28;20161;-78
2022/06/23 12:05:26;;;;;;;1.40;1.15;;;;;;;;;;4997445;28;20062;-76
2022/06/23 12:08:18;;;;;;;0.68;0.68;;;;;;;;;;5011563;28;20479;-76
2022/06/23 12:10:45;;;;;;;0.60;0.60;;;;;;;;;;5007532;28;20044;-77
2022/06/23 12:13:11;;;;;;;0.90;0.90;;;;;;;;;;5015898;28;20045;-78
2022/06/23 12:15:43;;;;;;;2.45;0.82;;;;;;;;;;5023574;28;20013;-78
2022/06/23 12:18:21;;;;;;;0.90;0.90;;;;;;;;;;5014873;28;20041;-77
2022/06/23 12:20:53;;;;;;;0.55;0.55;;;;;;;;;;5019369;28;20054;-78
2022/06/23 12:23:32;;;;;;;0.60;0.60;;;;;;;;;;5005550;28;20359;-78
2022/06/23 12:26:37;;;;;;;1.98;0.80;;;;;;;;;;5015598;28;20499;-79
2022/06/23 12:29:20;;;;;;;0.60;0.60;;;;;;;;;;5011531;28;20363;-77
2022/06/23 12:32:03;;;;;;;6.75;1.63;;;;;;;;;;4998975;28;20025;-77
2022/06/23 12:34:58;;;;;;;0.70;0.70;;;;;;;;;;4996672;28;20045;-78
2022/06/23 12:37:44;;;;;;;0.60;0.60;;;;;;;;;;4999854;28;20049;-76
2022/06/23 12:40:42;;;;;;;1.50;1.20;;;;;;;;;;5015506;28;20089;-80
2022/06/23 12:43:25;;;;;;;0.85;0.85;;;;;;;;;;5028345;28;20025;-79
2022/06/23 12:46:10;;;;;;;1.00;0.90;;;;;;;;;;5013075;28;20485;-80
2022/06/23 12:49:18;;;;;;;0.60;0.60;;;;;;;;;;5014372;28;20452;-79
2022/06/23 12:52:02;;;;;;;0.50;0.50;;;;;;;;;;5015196;28;20026;-77
2022/06/23 12:54:49;;;;;;;0.55;0.52;;;;;;;;;;5013318;28;20127;-79
2022/06/23 12:57:33;;;;;;;0.60;0.60;;;;;;;;;;5015915;28;20100;-77
2022/06/23 13:00:05;;;;;;;0.60;0.60;;;;;;;;;;5001747;28;20026;-77
2022/06/23 13:02:39;;;;;;;0.75;0.75;;;;;;;;;;5016032;28;20100;-78
2022/06/23 13:05:24;;;;;;;0.60;0.60;;;;;;;;;;5015455;28;20028;-78
2022/06/23 13:07:55;;;;;;;1.23;0.93;;;;;;;;;;5015739;28;20120;-77
2022/06/23 13:10:27;;;;;;;1.13;0.90;;;;;;;;;;5011347;28;20491;-77
2022/06/23 13:13:17;;;;;;;0.60;0.60;;;;;;;;;;5012960;28;20030;-77
2022/06/23 13:15:46;;;;;;;2.07;1.23;;;;;;;;;;5015492;28;20355;-77
2022/06/23 13:18:14;;;;;;;0.82;0.82;;;;;;;;;;5014375;28;20053;-77
2022/06/23 13:20:47;;;;;;;0.40;0.40;;;;;;;;;;5014584;28;20049;-78
2022/06/23 13:23:18;;;;;;;7.53;1.10;;;;;;;;;;4993705;28;20141;-77
2022/06/23 13:25:50;;;;;;;0.85;0.70;;;;;;;;;;5013692;28;20029;-77
2022/06/23 13:28:22;;;;;;;0.82;0.63;;;;;;;;;;5007072;28;20038;-79
2022/06/23 13:30:56;;;;;;;0.70;0.70;;;;;;;;;;5013378;28;20069;-79
2022/06/23 13:33:48;;;;;;;0.60;0.60;;;;;;;;;;5013993;28;20025;-79
2022/06/23 13:36:45;;;;;;;0.60;0.60;;;;;;;;;;5015100;28;20320;-78
2022/06/23 13:39:35;;;;;;;0.70;0.70;;;;;;;;;;5009472;28;20037;-78
2022/06/23 13:42:44;;;;;;;1.35;1.10;;;;;;;;;;5010461;28;20129;-79
2022/06/23 13:45:40;;;;;;;1.00;0.88;;;;;;;;;;5013878;28;20037;-81
2022/06/23 13:48:11;;;;;;;0.60;0.60;;;;;;;;;;5014919;28;20089;-81
2022/06/23 13:50:57;;;;;;;0.70;0.70;;;;;;;;;;5006356;28;20023;-82
2022/06/23 13:53:33;;;;;;;1.08;1.00;;;;;;;;;;5011007;28;20044;-81
2022/06/23 13:56:05;;;;;;;2.00;0.82;;;;;;;;;;5013301;28;20432;-78
2022/06/23 13:58:30;;;;;;;0.93;0.60;;;;;;;;;;5014120;28;20041;-78
2022/06/23 14:01:01;;;;;;;1.42;1.33;;;;;;;;;;5013648;28;20374;-79
2022/06/23 14:03:59;;;;;;;0.70;0.70;;;;;;;;;;5014800;28;20026;-79
2022/06/23 14:06:36;;;;;;;1.85;0.90;;;;;;;;;;5012325;28;20025;-79
2022/06/23 14:09:03;;;;;;;2.13;1.20;;;;;;;;;;5009803;28;20045;-81
2022/06/23 14:11:44;;;;;;;0.77;0.77;;;;;;;;;;5019309;28;20041;-81
2022/06/23 14:14:41;;;;;;;1.15;0.90;;;;;;;;;;5014503;28;20515;-80
2022/06/23 14:17:11;;;;;;;1.05;0.82;;;;;;;;;;5025979;28;20040;-81
2022/06/23 14:20:00;;;;;;;5.43;1.13;;;;;;;;;;4990140;28;20025;-83
2022/06/23 14:23:01;;;;;;;0.95;0.77;;;;;;;;;;5013632;28;20087;-79
2022/06/23 14:25:30;;;;;;;1.27;0.77;;;;;;;;;;4972132;28;20109;-79
2022/06/23 14:28:01;;;;;;;0.60;0.60;;;;;;;;;;4996383;28;20050;-80
2022/06/23 14:30:41;;;;;;;1.35;0.70;;;;;;;;;;5011912;28;20026;-78
2022/06/23 14:33:42;;;;;;;0.60;0.60;;;;;;;;;;5017190;28;20370;-80
2022/06/23 14:36:16;;;;;;;0.75;0.70;;;;;;;;;;5011424;28;20099;-80
2022/06/23 14:38:54;;;;;;;0.77;0.77;;;;;;;;;;5010839;28;20060;-78
2022/06/23 14:41:38;;;;;;;0.50;0.50;;;;;;;;;;5011638;28;20026;-79
2022/06/23 14:44:24;;;;;;;0.65;0.65;;;;;;;;;;5013548;28;20026;-80
2022/06/23 14:47:14;;;;;;;2.05;0.68;;;;;;;;;;4990562;28;20037;-80
2022/06/23 14:50:00;;;;;;;0.40;0.35;;;;;;;;;;5013131;28;20030;-79
2022/06/23 14:53:04;;;;;;;0.68;0.60;;;;;;;;;;5010173;28;20037;-78
2022/06/23 14:55:58;;;;;;;0.88;0.85;;;;;;;;;;5008629;28;20049;-81
2022/06/23 14:58:44;;;;;;;0.60;0.55;;;;;;;;;;5014239;28;20022;-79
2022/06/23 15:01:25;;;;;;;0.60;0.60;;;;;;;;;;5014096;28;20032;-77
2022/06/23 15:03:55;;;;;;;0.70;0.50;;;;;;;;;;5011964;28;20030;-81
2022/06/23 15:06:32;;;;;;;0.63;0.63;;;;;;;;;;5011464;28;20451;-77
2022/06/23 15:09:13;;;;;;;1.75;1.27;;;;;;;;;;5014183;28;20034;-79
2022/06/23 15:11:50;;;;;;;0.70;0.70;;;;;;;;;;5015067;28;20025;-79
2022/06/23 15:14:23;;;;;;;0.88;0.88;;;;;;;;;;5024798;28;20037;-79
2022/06/23 15:16:57;;;;;;;4.97;0.82;;;;;;;;;;5013725;28;20022;-78
2022/06/23 15:19:38;;;;;;;1.20;0.98;;;;;;;;;;5010037;28;20113;-79
2022/06/23 15:25:10;;;;;;;1.08;0.88;;;;;;;;;;5011051;28;20160;-78
2022/06/23 15:27:56;;;;;;;4.80;0.68;;;;;;;;;;5012930;28;20045;-79
2022/06/23 15:30:33;;;;;;;1.00;0.85;;;;;;;;;;5014193;28;20033;-79
2022/06/23 15:33:09;;;;;;;3.08;1.02;;;;;;;;;;5012060;28;20038;-79
2022/06/23 15:35:46;;;;;;;0.40;0.40;;;;;;;;;;4996834;28;20045;-79
2022/06/23 15:38:36;;;;;;;0.82;0.80;;;;;;;;;;5011524;28;20068;-78
2022/06/23 15:41:22;;;;;;;0.60;0.60;;;;;;;;;;5012542;28;20083;-78
2022/06/23 15:43:51;;;;;;;0.85;0.85;;;;;;;;;;5013647;28;20040;-78
2022/06/23 15:46:42;;;;;;;0.65;0.65;;;;;;;;;;5009462;28;20030;-79
2022/06/23 15:49:13;;;;;;;6.78;0.85;;;;;;;;;;5012624;28;20026;-79
2022/06/23 15:51:56;;;;;;;0.65;0.65;;;;;;;;;;4999817;28;20041;-79
2022/06/23 15:54:27;;;;;;;0.40;0.40;;;;;;;;;;5014339;28;20025;-78
2022/06/23 15:56:59;;;;;;;0.77;0.73;;;;;;;;;;4999847;28;20053;-77
2022/06/23 15:59:58;;;;;;;0.50;0.38;;;;;;;;;;5008978;28;20467;-77
2022/06/23 16:02:53;;;;;;;1.25;0.90;;;;;;;;;;5016464;28;20092;-78
2022/06/23 16:05:22;;;;;;;0.68;0.57;;;;;;;;;;5004110;28;20365;-79
2022/06/23 16:08:08;;;;;;;1.38;1.13;;;;;;;;;;5022606;28;20463;-79